sensor_id;sensor_type;location;lat;lon;timestamp;temperature;humidity
4813;DHT22;2420;51.202;8.698;2022-10-16T00:01:38;10.40;1.00
4813;DHT22;2420;51.202;8.698;2022-10-16T00:04:04;10.30;1.00
4813;DHT22;2420;51.202;8.698;2022-10-16T00:06:31;10.30;1.00
4813;DHT22;2420;51.202;8.698;2022-10-16T00:08:56;10.30;1.00
4813;DHT22;2420;51.202;8.698;2022-10-16T00:11:28;10.20;1.00
4813;DHT22;2420;51.202;8.698;2022-10-16T00:13:57;10.20;1.00
4813;DHT22;2420;51.202;8.698;2022-10-16T00:16:24;10.20;1.00
4813;DHT22;2420;51.202;8.698;2022-10-16T00:18:49;10.20;1.00
4813;DHT22;2420;51.202;8.698;2022-10-16T00:21:18;10.10;1.00
4813;DHT22;2420;51.202;8.698;2022-10-16T00:23:45;10.10;1.00
4813;DHT22;2420;51.202;8.698;2022-10-16T00:26:13;10.10;1.00
4813;DHT22;2420;51.202;8.698;2022-10-16T00:28:39;10.10;1.00
4813;DHT22;2420;51.202;8.698;2022-10-16T00:31:10;10.10;1.00
4813;DHT22;2420;51.202;8.698;2022-10-16T00:33:37;10.10;1.00
4813;DHT22;2420;51.202;8.698;2022-10-16T00:36:04;10.10;1.00
4813;DHT22;2420;51.202;8.698;2022-10-16T00:38:30;10.10;1.00
4813;DHT22;2420;51.202;8.698;2022-10-16T00:40:56;10.10;1.00
4813;DHT22;2420;51.202;8.698;2022-10-16T00:43:42;10.10;1.00
4813;DHT22;2420;51.202;8.698;2022-10-16T00:46:23;10.10;1.00
4813;DHT22;2420;51.202;8.698;2022-10-16T00:49:03;10.10;1.00
4813;DHT22;2420;51.202;8.698;2022-10-16T00:51:38;10.10;1.00
4813;DHT22;2420;51.202;8.698;2022-10-16T00:54:09;10.10;1.00
4813;DHT22;2420;51.202;8.698;2022-10-16T00:56:35;10.10;1.00
4813;DHT22;2420;51.202;8.698;2022-10-16T00:59:04;10.00;1.00
4813;DHT22;2420;51.202;8.698;2022-10-16T01:01:31;10.00;1.00
4813;DHT22;2420;51.202;8.698;2022-10-16T01:03:57;10.00;1.00
4813;DHT22;2420;51.202;8.698;2022-10-16T01:09:05;10.00;1.00
4813;DHT22;2420;51.202;8.698;2022-10-16T01:11:49;10.00;1.00
4813;DHT22;2420;51.202;8.698;2022-10-16T01:17:09;10.00;1.00
4813;DHT22;2420;51.202;8.698;2022-10-16T01:22:37;10.10;1.00
4813;DHT22;2420;51.202;8.698;2022-10-16T01:25:07;10.10;1.00
4813;DHT22;2420;51.202;8.698;2022-10-16T01:27:36;10.10;1.00
4813;DHT22;2420;51.202;8.698;2022-10-16T01:30:25;10.10;1.00
4813;DHT22;2420;51.202;8.698;2022-10-16T01:33:02;10.10;1.00
4813;DHT22;2420;51.202;8.698;2022-10-16T01:35:36;10.20;1.00
4813;DHT22;2420;51.202;8.698;2022-10-16T01:38:12;10.20;1.00
4813;DHT22;2420;51.202;8.698;2022-10-16T01:40:44;10.20;1.00
4813;DHT22;2420;51.202;8.698;2022-10-16T01:43:33;10.30;1.00
4813;DHT22;2420;51.202;8.698;2022-10-16T01:46:01;10.40;1.00
4813;DHT22;2420;51.202;8.698;2022-10-16T01:48:28;10.30;1.00
4813;DHT22;2420;51.202;8.698;2022-10-16T01:51:03;10.30;1.00
4813;DHT22;2420;51.202;8.698;2022-10-16T01:53:31;10.30;1.00
4813;DHT22;2420;51.202;8.698;2022-10-16T01:55:59;10.20;1.00
4813;DHT22;2420;51.202;8.698;2022-10-16T01:58:27;10.20;1.00
4813;DHT22;2420;51.202;8.698;2022-10-16T02:00:54;10.20;1.00
4813;DHT22;2420;51.202;8.698;2022-10-16T02:03:20;10.20;1.00
4813;DHT22;2420;51.202;8.698;2022-10-16T02:05:53;10.20;1.00
4813;DHT22;2420;51.202;8.698;2022-10-16T02:08:20;10.20;1.00
4813;DHT22;2420;51.202;8.698;2022-10-16T02:10:46;10.20;1.00
4813;DHT22;2420;51.202;8.698;2022-10-16T02:13:48;10.20;1.00
4813;DHT22;2420;51.202;8.698;2022-10-16T02:16:16;10.20;1.00
4813;DHT22;2420;51.202;8.698;2022-10-16T02:18:42;10.20;1.00
4813;DHT22;2420;51.202;8.698;2022-10-16T02:21:19;10.30;1.00
4813;DHT22;2420;51.202;8.698;2022-10-16T02:24:03;10.30;1.00
4813;DHT22;2420;51.202;8.698;2022-10-16T02:26:36;10.30;1.00
4813;DHT22;2420;51.202;8.698;2022-10-16T02:29:08;10.30;1.00
4813;DHT22;2420;51.202;8.698;2022-10-16T02:31:39;10.30;1.00
4813;DHT22;2420;51.202;8.698;2022-10-16T02:34:06;10.30;1.00
4813;DHT22;2420;51.202;8.698;2022-10-16T02:36:34;10.30;1.00
4813;DHT22;2420;51.202;8.698;2022-10-16T02:39:01;10.20;1.00
4813;DHT22;2420;51.202;8.698;2022-10-16T02:41:27;10.20;1.00
4813;DHT22;2420;51.202;8.698;2022-10-16T02:43:53;10.20;1.00
4813;DHT22;2420;51.202;8.698;2022-10-16T02:46:20;10.20;1.00
4813;DHT22;2420;51.202;8.698;2022-10-16T02:48:46;10.20;1.00
4813;DHT22;2420;51.202;8.698;2022-10-16T02:51:12;10.20;1.00
4813;DHT22;2420;51.202;8.698;2022-10-16T02:53:37;10.20;1.00
4813;DHT22;2420;51.202;8.698;2022-10-16T02:56:03;10.20;1.00
4813;DHT22;2420;51.202;8.698;2022-10-16T02:58:29;10.20;1.00
4813;DHT22;2420;51.202;8.698;2022-10-16T03:00:55;10.20;1.00
4813;DHT22;2420;51.202;8.698;2022-10-16T03:03:21;10.20;1.00
4813;DHT22;2420;51.202;8.698;2022-10-16T03:05:46;10.20;1.00
4813;DHT22;2420;51.202;8.698;2022-10-16T03:08:12;10.10;1.00
4813;DHT22;2420;51.202;8.698;2022-10-16T03:10:38;10.10;1.00
4813;DHT22;2420;51.202;8.698;2022-10-16T03:13:04;10.10;1.00
4813;DHT22;2420;51.202;8.698;2022-10-16T03:15:29;10.00;1.00
4813;DHT22;2420;51.202;8.698;2022-10-16T03:17:58;10.10;1.00
4813;DHT22;2420;51.202;8.698;2022-10-16T03:20:24;10.00;1.00
4813;DHT22;2420;51.202;8.698;2022-10-16T03:22:49;10.00;1.00
4813;DHT22;2420;51.202;8.698;2022-10-16T03:25:15;10.00;1.00
4813;DHT22;2420;51.202;8.698;2022-10-16T03:27:41;10.00;1.00
4813;DHT22;2420;51.202;8.698;2022-10-16T03:30:07;9.90;1.00
4813;DHT22;2420;51.202;8.698;2022-10-16T03:32:33;9.90;1.00
4813;DHT22;2420;51.202;8.698;2022-10-16T03:34:58;9.90;1.00
4813;DHT22;2420;51.202;8.698;2022-10-16T03:37:24;9.90;1.00
4813;DHT22;2420;51.202;8.698;2022-10-16T03:39:49;9.90;1.00
4813;DHT22;2420;51.202;8.698;2022-10-16T03:42:15;9.90;1.00
4813;DHT22;2420;51.202;8.698;2022-10-16T03:44:43;9.90;1.00
4813;DHT22;2420;51.202;8.698;2022-10-16T03:47:09;9.90;1.00
4813;DHT22;2420;51.202;8.698;2022-10-16T03:49:34;9.90;1.00
4813;DHT22;2420;51.202;8.698;2022-10-16T03:52:00;9.90;1.00
4813;DHT22;2420;51.202;8.698;2022-10-16T03:54:25;9.90;1.00
4813;DHT22;2420;51.202;8.698;2022-10-16T03:56:51;9.90;1.00
4813;DHT22;2420;51.202;8.698;2022-10-16T03:59:17;9.90;1.00
4813;DHT22;2420;51.202;8.698;2022-10-16T04:01:42;9.90;1.00
4813;DHT22;2420;51.202;8.698;2022-10-16T04:04:08;9.90;1.00
4813;DHT22;2420;51.202;8.698;2022-10-16T04:06:33;9.90;1.00
4813;DHT22;2420;51.202;8.698;2022-10-16T04:08:59;9.90;1.00
4813;DHT22;2420;51.202;8.698;2022-10-16T04:11:24;9.90;1.00
4813;DHT22;2420;51.202;8.698;2022-10-16T04:13:50;10.20;1.00
4813;DHT22;2420;51.202;8.698;2022-10-16T04:16:15;10.40;1.00
4813;DHT22;2420;51.202;8.698;2022-10-16T04:18:41;10.60;1.00
4813;DHT22;2420;51.202;8.698;2022-10-16T04:21:07;10.80;1.00
4813;DHT22;2420;51.202;8.698;2022-10-16T04:23:33;11.10;1.00
4813;DHT22;2420;51.202;8.698;2022-10-16T04:25:59;11.20;1.00
4813;DHT22;2420;51.202;8.698;2022-10-16T04:28:24;11.30;1.00
4813;DHT22;2420;51.202;8.698;2022-10-16T04:30:50;11.30;1.00
4813;DHT22;2420;51.202;8.698;2022-10-16T04:33:16;11.30;1.00
4813;DHT22;2420;51.202;8.698;2022-10-16T04:35:41;11.40;1.00
4813;DHT22;2420;51.202;8.698;2022-10-16T04:38:07;11.40;1.00
4813;DHT22;2420;51.202;8.698;2022-10-16T04:40:32;11.40;1.00
4813;DHT22;2420;51.202;8.698;2022-10-16T04:42:58;11.40;1.00
4813;DHT22;2420;51.202;8.698;2022-10-16T04:45:24;11.30;1.00
4813;DHT22;2420;51.202;8.698;2022-10-16T04:47:50;11.30;1.00
4813;DHT22;2420;51.202;8.698;2022-10-16T04:50:15;11.30;1.00
4813;DHT22;2420;51.202;8.698;2022-10-16T04:52:41;11.30;1.00
4813;DHT22;2420;51.202;8.698;2022-10-16T04:55:07;11.30;1.00
4813;DHT22;2420;51.202;8.698;2022-10-16T04:57:33;11.30;1.00
4813;DHT22;2420;51.202;8.698;2022-10-16T04:59:59;11.40;1.00
4813;DHT22;2420;51.202;8.698;2022-10-16T05:02:25;11.40;1.00
4813;DHT22;2420;51.202;8.698;2022-10-16T05:04:51;11.50;1.00
4813;DHT22;2420;51.202;8.698;2022-10-16T05:07:16;11.60;1.00
4813;DHT22;2420;51.202;8.698;2022-10-16T05:09:42;11.70;1.00
4813;DHT22;2420;51.202;8.698;2022-10-16T05:12:08;11.70;1.00
4813;DHT22;2420;51.202;8.698;2022-10-16T05:14:33;11.70;1.00
4813;DHT22;2420;51.202;8.698;2022-10-16T05:17:00;11.80;1.00
4813;DHT22;2420;51.202;8.698;2022-10-16T05:19:25;11.80;1.00
4813;DHT22;2420;51.202;8.698;2022-10-16T05:21:51;11.80;1.00
4813;DHT22;2420;51.202;8.698;2022-10-16T05:24:17;11.70;1.00
4813;DHT22;2420;51.202;8.698;2022-10-16T05:26:42;11.60;1.00
4813;DHT22;2420;51.202;8.698;2022-10-16T05:29:08;11.60;1.00
4813;DHT22;2420;51.202;8.698;2022-10-16T05:31:34;11.80;1.00
4813;DHT22;2420;51.202;8.698;2022-10-16T05:34:00;11.70;1.00
4813;DHT22;2420;51.202;8.698;2022-10-16T05:36:26;11.80;1.00
4813;DHT22;2420;51.202;8.698;2022-10-16T05:38:52;11.70;1.00
4813;DHT22;2420;51.202;8.698;2022-10-16T05:41:18;11.80;1.00
4813;DHT22;2420;51.202;8.698;2022-10-16T05:43:50;11.80;1.00
4813;DHT22;2420;51.202;8.698;2022-10-16T05:46:16;11.80;1.00
4813;DHT22;2420;51.202;8.698;2022-10-16T05:48:41;11.80;1.00
4813;DHT22;2420;51.202;8.698;2022-10-16T05:51:09;11.80;1.00
4813;DHT22;2420;51.202;8.698;2022-10-16T05:53:36;11.80;1.00
4813;DHT22;2420;51.202;8.698;2022-10-16T05:56:03;11.80;1.00
4813;DHT22;2420;51.202;8.698;2022-10-16T05:58:31;11.90;1.00
4813;DHT22;2420;51.202;8.698;2022-10-16T06:00:59;11.90;1.00
4813;DHT22;2420;51.202;8.698;2022-10-16T06:03:26;11.80;1.00
4813;DHT22;2420;51.202;8.698;2022-10-16T06:05:51;11.80;1.00
4813;DHT22;2420;51.202;8.698;2022-10-16T06:08:19;11.80;1.00
4813;DHT22;2420;51.202;8.698;2022-10-16T06:10:45;11.80;1.00
4813;DHT22;2420;51.202;8.698;2022-10-16T06:13:12;11.80;1.00
4813;DHT22;2420;51.202;8.698;2022-10-16T06:15:39;11.80;1.00
4813;DHT22;2420;51.202;8.698;2022-10-16T06:18:07;11.80;1.00
4813;DHT22;2420;51.202;8.698;2022-10-16T06:20:33;11.80;1.00
4813;DHT22;2420;51.202;8.698;2022-10-16T06:22:58;11.70;1.00
4813;DHT22;2420;51.202;8.698;2022-10-16T06:25:24;11.80;1.00
4813;DHT22;2420;51.202;8.698;2022-10-16T06:27:49;11.80;1.00
4813;DHT22;2420;51.202;8.698;2022-10-16T06:30:15;11.80;1.00
4813;DHT22;2420;51.202;8.698;2022-10-16T06:32:40;11.80;1.00
4813;DHT22;2420;51.202;8.698;2022-10-16T06:35:06;11.80;1.00
4813;DHT22;2420;51.202;8.698;2022-10-16T06:37:31;11.90;1.00
4813;DHT22;2420;51.202;8.698;2022-10-16T06:39:57;11.90;1.00
4813;DHT22;2420;51.202;8.698;2022-10-16T06:42:23;11.90;1.00
4813;DHT22;2420;51.202;8.698;2022-10-16T06:44:48;11.90;1.00
4813;DHT22;2420;51.202;8.698;2022-10-16T06:47:14;12.00;1.00
4813;DHT22;2420;51.202;8.698;2022-10-16T06:49:39;12.10;1.00
4813;DHT22;2420;51.202;8.698;2022-10-16T06:52:05;12.10;1.00
4813;DHT22;2420;51.202;8.698;2022-10-16T06:54:30;12.20;1.00
4813;DHT22;2420;51.202;8.698;2022-10-16T06:56:56;12.30;1.00
4813;DHT22;2420;51.202;8.698;2022-10-16T06:59:22;12.30;1.00
4813;DHT22;2420;51.202;8.698;2022-10-16T07:01:47;12.50;1.00
4813;DHT22;2420;51.202;8.698;2022-10-16T07:04:13;12.50;1.00
4813;DHT22;2420;51.202;8.698;2022-10-16T07:06:39;12.50;1.00
4813;DHT22;2420;51.202;8.698;2022-10-16T07:09:08;12.60;1.00
4813;DHT22;2420;51.202;8.698;2022-10-16T07:11:34;12.60;1.00
4813;DHT22;2420;51.202;8.698;2022-10-16T07:14:01;12.60;1.00
4813;DHT22;2420;51.202;8.698;2022-10-16T07:16:28;12.60;1.00
4813;DHT22;2420;51.202;8.698;2022-10-16T07:18:55;12.60;1.00
4813;DHT22;2420;51.202;8.698;2022-10-16T07:21:25;12.60;1.00
4813;DHT22;2420;51.202;8.698;2022-10-16T07:23:52;12.60;1.00
4813;DHT22;2420;51.202;8.698;2022-10-16T07:26:17;12.60;1.00
4813;DHT22;2420;51.202;8.698;2022-10-16T07:28:43;12.60;1.00
4813;DHT22;2420;51.202;8.698;2022-10-16T07:31:11;12.60;1.00
4813;DHT22;2420;51.202;8.698;2022-10-16T07:33:39;12.60;1.00
4813;DHT22;2420;51.202;8.698;2022-10-16T07:36:05;12.60;1.00
4813;DHT22;2420;51.202;8.698;2022-10-16T07:38:31;12.60;1.00
4813;DHT22;2420;51.202;8.698;2022-10-16T07:41:01;12.70;1.00
4813;DHT22;2420;51.202;8.698;2022-10-16T07:43:27;12.70;1.00
4813;DHT22;2420;51.202;8.698;2022-10-16T07:45:53;12.80;1.00
4813;DHT22;2420;51.202;8.698;2022-10-16T07:48:19;12.80;1.00
4813;DHT22;2420;51.202;8.698;2022-10-16T07:50:45;12.90;1.00
4813;DHT22;2420;51.202;8.698;2022-10-16T07:53:11;12.90;1.00
4813;DHT22;2420;51.202;8.698;2022-10-16T07:55:37;12.90;1.00
4813;DHT22;2420;51.202;8.698;2022-10-16T07:58:02;13.00;1.00
4813;DHT22;2420;51.202;8.698;2022-10-16T08:00:28;13.00;1.00
4813;DHT22;2420;51.202;8.698;2022-10-16T08:02:53;13.00;1.00
4813;DHT22;2420;51.202;8.698;2022-10-16T08:05:19;13.10;1.00
4813;DHT22;2420;51.202;8.698;2022-10-16T08:07:49;13.10;1.00
4813;DHT22;2420;51.202;8.698;2022-10-16T08:10:19;13.10;1.00
4813;DHT22;2420;51.202;8.698;2022-10-16T08:12:45;13.10;1.00
4813;DHT22;2420;51.202;8.698;2022-10-16T08:15:11;13.10;1.00
4813;DHT22;2420;51.202;8.698;2022-10-16T08:17:37;13.10;1.00
4813;DHT22;2420;51.202;8.698;2022-10-16T08:20:03;13.20;1.00
4813;DHT22;2420;51.202;8.698;2022-10-16T08:22:28;13.20;1.00
4813;DHT22;2420;51.202;8.698;2022-10-16T08:24:54;13.20;1.00
4813;DHT22;2420;51.202;8.698;2022-10-16T08:27:20;13.20;1.00
4813;DHT22;2420;51.202;8.698;2022-10-16T08:29:45;13.30;1.00
4813;DHT22;2420;51.202;8.698;2022-10-16T08:32:11;13.40;1.00
4813;DHT22;2420;51.202;8.698;2022-10-16T08:34:37;13.60;1.00
4813;DHT22;2420;51.202;8.698;2022-10-16T08:37:02;13.60;1.00
4813;DHT22;2420;51.202;8.698;2022-10-16T08:39:28;13.60;1.00
4813;DHT22;2420;51.202;8.698;2022-10-16T08:50:36;13.90;1.00
4813;DHT22;2420;51.202;8.698;2022-10-16T08:53:04;13.90;1.00
4813;DHT22;2420;51.202;8.698;2022-10-16T08:55:43;14.00;1.00
4813;DHT22;2420;51.202;8.698;2022-10-16T08:58:13;14.00;1.00
4813;DHT22;2420;51.202;8.698;2022-10-16T09:00:40;14.00;1.00
4813;DHT22;2420;51.202;8.698;2022-10-16T09:07:03;14.00;1.00
4813;DHT22;2420;51.202;8.698;2022-10-16T09:17:33;14.10;1.00
4813;DHT22;2420;51.202;8.698;2022-10-16T09:22:39;14.20;1.00
4813;DHT22;2420;51.202;8.698;2022-10-16T09:25:17;14.20;1.00
4813;DHT22;2420;51.202;8.698;2022-10-16T09:27:48;14.30;1.00
4813;DHT22;2420;51.202;8.698;2022-10-16T09:30:17;14.30;1.00
4813;DHT22;2420;51.202;8.698;2022-10-16T09:32:44;14.20;1.00
4813;DHT22;2420;51.202;8.698;2022-10-16T09:35:16;14.20;1.00
4813;DHT22;2420;51.202;8.698;2022-10-16T09:37:44;14.10;1.00
4813;DHT22;2420;51.202;8.698;2022-10-16T09:40:28;14.20;1.00
4813;DHT22;2420;51.202;8.698;2022-10-16T09:45:38;14.20;1.00
4813;DHT22;2420;51.202;8.698;2022-10-16T09:48:11;14.20;1.00
4813;DHT22;2420;51.202;8.698;2022-10-16T09:50:37;14.30;1.00
4813;DHT22;2420;51.202;8.698;2022-10-16T09:53:14;14.40;1.00
4813;DHT22;2420;51.202;8.698;2022-10-16T09:55:53;14.50;1.00
4813;DHT22;2420;51.202;8.698;2022-10-16T09:58:23;14.50;1.00
4813;DHT22;2420;51.202;8.698;2022-10-16T10:00:52;14.60;1.00
4813;DHT22;2420;51.202;8.698;2022-10-16T10:03:39;14.70;1.00
4813;DHT22;2420;51.202;8.698;2022-10-16T10:06:25;14.60;1.00
4813;DHT22;2420;51.202;8.698;2022-10-16T10:11:59;14.70;1.00
4813;DHT22;2420;51.202;8.698;2022-10-16T10:14:45;14.80;1.00
4813;DHT22;2420;51.202;8.698;2022-10-16T10:17:22;14.80;1.00
4813;DHT22;2420;51.202;8.698;2022-10-16T10:19:50;14.70;1.00
4813;DHT22;2420;51.202;8.698;2022-10-16T10:30:29;14.80;1.00
4813;DHT22;2420;51.202;8.698;2022-10-16T10:35:44;14.70;1.00
4813;DHT22;2420;51.202;8.698;2022-10-16T10:38:24;14.70;1.00
4813;DHT22;2420;51.202;8.698;2022-10-16T10:46:38;14.60;1.00
4813;DHT22;2420;51.202;8.698;2022-10-16T10:54:45;14.60;1.00
4813;DHT22;2420;51.202;8.698;2022-10-16T10:57:24;14.70;1.00
4813;DHT22;2420;51.202;8.698;2022-10-16T11:00:12;14.80;1.00
4813;DHT22;2420;51.202;8.698;2022-10-16T11:02:58;14.70;1.00
4813;DHT22;2420;51.202;8.698;2022-10-16T11:08:26;14.70;1.00
4813;DHT22;2420;51.202;8.698;2022-10-16T11:11:11;14.80;1.00
4813;DHT22;2420;51.202;8.698;2022-10-16T11:16:27;15.00;1.00
4813;DHT22;2420;51.202;8.698;2022-10-16T11:19:04;15.20;1.00
4813;DHT22;2420;51.202;8.698;2022-10-16T11:21:50;15.40;1.00
4813;DHT22;2420;51.202;8.698;2022-10-16T11:24:42;15.70;1.00
4813;DHT22;2420;51.202;8.698;2022-10-16T11:27:16;16.00;1.00
4813;DHT22;2420;51.202;8.698;2022-10-16T11:29:49;16.30;1.00
4813;DHT22;2420;51.202;8.698;2022-10-16T11:32:22;16.50;1.00
4813;DHT22;2420;51.202;8.698;2022-10-16T11:34:57;16.60;1.00
4813;DHT22;2420;51.202;8.698;2022-10-16T11:37:30;16.70;1.00
4813;DHT22;2420;51.202;8.698;2022-10-16T11:40:14;16.70;1.00
4813;DHT22;2420;51.202;8.698;2022-10-16T11:42:46;16.60;1.00
4813;DHT22;2420;51.202;8.698;2022-10-16T11:45:32;16.50;1.00
4813;DHT22;2420;51.202;8.698;2022-10-16T11:55:46;16.50;1.00
4813;DHT22;2420;51.202;8.698;2022-10-16T11:58:31;16.60;1.00
4813;DHT22;2420;51.202;8.698;2022-10-16T12:06:26;16.80;1.00
4813;DHT22;2420;51.202;8.698;2022-10-16T12:08:53;16.90;1.00
4813;DHT22;2420;51.202;8.698;2022-10-16T12:16:50;17.10;1.00
4813;DHT22;2420;51.202;8.698;2022-10-16T12:19:20;17.10;1.00
4813;DHT22;2420;51.202;8.698;2022-10-16T12:21:46;17.00;1.00
4813;DHT22;2420;51.202;8.698;2022-10-16T12:24:33;16.90;1.00
4813;DHT22;2420;51.202;8.698;2022-10-16T12:27:00;16.80;1.00
4813;DHT22;2420;51.202;8.698;2022-10-16T12:29:36;16.60;1.00
4813;DHT22;2420;51.202;8.698;2022-10-16T12:32:05;16.50;1.00
4813;DHT22;2420;51.202;8.698;2022-10-16T12:37:08;16.30;1.00
4813;DHT22;2420;51.202;8.698;2022-10-16T12:39:35;16.20;1.00
4813;DHT22;2420;51.202;8.698;2022-10-16T12:42:04;16.20;1.00
4813;DHT22;2420;51.202;8.698;2022-10-16T12:44:36;16.30;1.00
4813;DHT22;2420;51.202;8.698;2022-10-16T12:47:02;16.40;1.00
4813;DHT22;2420;51.202;8.698;2022-10-16T12:51:53;16.60;1.00
4813;DHT22;2420;51.202;8.698;2022-10-16T12:54:26;16.70;1.00
4813;DHT22;2420;51.202;8.698;2022-10-16T12:57:24;16.80;1.00
4813;DHT22;2420;51.202;8.698;2022-10-16T13:00:09;16.60;1.00
4813;DHT22;2420;51.202;8.698;2022-10-16T13:11:59;16.40;1.00
4813;DHT22;2420;51.202;8.698;2022-10-16T13:23:23;16.60;1.00
4813;DHT22;2420;51.202;8.698;2022-10-16T13:26:12;16.60;1.00
4813;DHT22;2420;51.202;8.698;2022-10-16T13:28:39;16.70;1.00
4813;DHT22;2420;51.202;8.698;2022-10-16T13:31:20;16.70;1.00
4813;DHT22;2420;51.202;8.698;2022-10-16T13:33:49;16.70;1.00
4813;DHT22;2420;51.202;8.698;2022-10-16T13:36:26;16.70;1.00
4813;DHT22;2420;51.202;8.698;2022-10-16T13:39:11;16.70;1.00
4813;DHT22;2420;51.202;8.698;2022-10-16T13:41:37;16.70;1.00
4813;DHT22;2420;51.202;8.698;2022-10-16T13:44:04;16.70;1.00
4813;DHT22;2420;51.202;8.698;2022-10-16T13:46:30;16.70;1.00
4813;DHT22;2420;51.202;8.698;2022-10-16T13:49:16;16.60;1.00
4813;DHT22;2420;51.202;8.698;2022-10-16T13:51:57;16.60;1.00
4813;DHT22;2420;51.202;8.698;2022-10-16T13:54:23;16.70;1.00
4813;DHT22;2420;51.202;8.698;2022-10-16T13:56:49;16.70;1.00
4813;DHT22;2420;51.202;8.698;2022-10-16T13:59:26;16.70;1.00
4813;DHT22;2420;51.202;8.698;2022-10-16T14:01:55;16.60;1.00
4813;DHT22;2420;51.202;8.698;2022-10-16T14:04:22;16.70;1.00
4813;DHT22;2420;51.202;8.698;2022-10-16T14:06:50;16.80;1.00
4813;DHT22;2420;51.202;8.698;2022-10-16T14:09:28;16.80;1.00
4813;DHT22;2420;51.202;8.698;2022-10-16T14:12:01;16.70;1.00
4813;DHT22;2420;51.202;8.698;2022-10-16T14:14:35;16.70;1.00
4813;DHT22;2420;51.202;8.698;2022-10-16T14:17:05;16.70;1.00
4813;DHT22;2420;51.202;8.698;2022-10-16T14:19:31;16.70;1.00
4813;DHT22;2420;51.202;8.698;2022-10-16T14:21:58;16.70;1.00
4813;DHT22;2420;51.202;8.698;2022-10-16T14:24:34;16.70;1.00
4813;DHT22;2420;51.202;8.698;2022-10-16T14:27:00;16.70;1.00
4813;DHT22;2420;51.202;8.698;2022-10-16T14:29:28;16.80;1.00
4813;DHT22;2420;51.202;8.698;2022-10-16T14:32:03;16.80;1.00
4813;DHT22;2420;51.202;8.698;2022-10-16T14:34:37;16.80;1.00
4813;DHT22;2420;51.202;8.698;2022-10-16T14:37:25;16.80;1.00
4813;DHT22;2420;51.202;8.698;2022-10-16T14:39:52;16.80;1.00
4813;DHT22;2420;51.202;8.698;2022-10-16T14:42:20;16.80;1.00
4813;DHT22;2420;51.202;8.698;2022-10-16T14:44:49;16.80;1.00
4813;DHT22;2420;51.202;8.698;2022-10-16T14:47:20;16.80;1.00
4813;DHT22;2420;51.202;8.698;2022-10-16T14:49:49;16.80;1.00
4813;DHT22;2420;51.202;8.698;2022-10-16T14:52:15;16.80;1.00
4813;DHT22;2420;51.202;8.698;2022-10-16T14:54:41;16.70;1.00
4813;DHT22;2420;51.202;8.698;2022-10-16T14:57:20;16.70;1.00
4813;DHT22;2420;51.202;8.698;2022-10-16T14:59:47;16.70;1.00
4813;DHT22;2420;51.202;8.698;2022-10-16T15:04:45;16.80;1.00
4813;DHT22;2420;51.202;8.698;2022-10-16T15:07:11;16.70;1.00
4813;DHT22;2420;51.202;8.698;2022-10-16T15:09:36;16.70;1.00
4813;DHT22;2420;51.202;8.698;2022-10-16T15:12:02;16.60;1.00
4813;DHT22;2420;51.202;8.698;2022-10-16T15:14:27;16.60;1.00
4813;DHT22;2420;51.202;8.698;2022-10-16T15:16:53;16.60;1.00
4813;DHT22;2420;51.202;8.698;2022-10-16T15:19:18;16.60;1.00
4813;DHT22;2420;51.202;8.698;2022-10-16T15:21:44;16.50;1.00
4813;DHT22;2420;51.202;8.698;2022-10-16T15:24:12;16.50;1.00
4813;DHT22;2420;51.202;8.698;2022-10-16T15:26:38;16.40;1.00
4813;DHT22;2420;51.202;8.698;2022-10-16T15:29:04;16.40;1.00
4813;DHT22;2420;51.202;8.698;2022-10-16T15:31:30;16.30;1.00
4813;DHT22;2420;51.202;8.698;2022-10-16T15:33:56;16.30;1.00
4813;DHT22;2420;51.202;8.698;2022-10-16T15:36:32;16.30;1.00
4813;DHT22;2420;51.202;8.698;2022-10-16T15:39:13;16.20;1.00
4813;DHT22;2420;51.202;8.698;2022-10-16T15:41:39;16.20;1.00
4813;DHT22;2420;51.202;8.698;2022-10-16T15:44:05;16.20;1.00
4813;DHT22;2420;51.202;8.698;2022-10-16T15:46:31;16.10;1.00
4813;DHT22;2420;51.202;8.698;2022-10-16T15:48:58;16.00;1.00
4813;DHT22;2420;51.202;8.698;2022-10-16T15:51:25;16.00;1.00
4813;DHT22;2420;51.202;8.698;2022-10-16T15:53:57;16.00;1.00
4813;DHT22;2420;51.202;8.698;2022-10-16T15:56:24;16.00;1.00
4813;DHT22;2420;51.202;8.698;2022-10-16T15:58:51;16.00;1.00
4813;DHT22;2420;51.202;8.698;2022-10-16T16:01:17;15.90;1.00
4813;DHT22;2420;51.202;8.698;2022-10-16T16:03:43;15.90;1.00
4813;DHT22;2420;51.202;8.698;2022-10-16T16:06:11;15.80;1.00
4813;DHT22;2420;51.202;8.698;2022-10-16T16:08:38;15.80;1.00
4813;DHT22;2420;51.202;8.698;2022-10-16T16:11:09;15.70;1.00
4813;DHT22;2420;51.202;8.698;2022-10-16T16:13:35;15.70;1.00
4813;DHT22;2420;51.202;8.698;2022-10-16T16:16:09;15.70;1.00
4813;DHT22;2420;51.202;8.698;2022-10-16T16:18:35;15.70;1.00
4813;DHT22;2420;51.202;8.698;2022-10-16T16:21:01;15.70;1.00
4813;DHT22;2420;51.202;8.698;2022-10-16T16:23:26;15.60;1.00
4813;DHT22;2420;51.202;8.698;2022-10-16T16:28:40;15.60;1.00
4813;DHT22;2420;51.202;8.698;2022-10-16T16:31:06;15.50;1.00
4813;DHT22;2420;51.202;8.698;2022-10-16T16:33:32;15.50;1.00
4813;DHT22;2420;51.202;8.698;2022-10-16T16:35:59;15.50;1.00
4813;DHT22;2420;51.202;8.698;2022-10-16T16:38:25;15.40;1.00
4813;DHT22;2420;51.202;8.698;2022-10-16T16:40:51;15.40;1.00
4813;DHT22;2420;51.202;8.698;2022-10-16T16:43:17;15.30;1.00
4813;DHT22;2420;51.202;8.698;2022-10-16T16:45:43;15.30;1.00
4813;DHT22;2420;51.202;8.698;2022-10-16T16:48:08;15.20;1.00
4813;DHT22;2420;51.202;8.698;2022-10-16T16:50:37;15.20;1.00
4813;DHT22;2420;51.202;8.698;2022-10-16T16:53:03;15.20;1.00
4813;DHT22;2420;51.202;8.698;2022-10-16T16:55:29;15.10;1.00
4813;DHT22;2420;51.202;8.698;2022-10-16T16:57:54;15.10;1.00
4813;DHT22;2420;51.202;8.698;2022-10-16T17:00:20;15.00;1.00
4813;DHT22;2420;51.202;8.698;2022-10-16T17:02:49;14.90;1.00
4813;DHT22;2420;51.202;8.698;2022-10-16T17:05:15;14.90;1.00
4813;DHT22;2420;51.202;8.698;2022-10-16T17:07:41;14.90;1.00
4813;DHT22;2420;51.202;8.698;2022-10-16T17:10:07;14.80;1.00
4813;DHT22;2420;51.202;8.698;2022-10-16T17:12:33;14.80;1.00
4813;DHT22;2420;51.202;8.698;2022-10-16T17:14:59;14.80;1.00
4813;DHT22;2420;51.202;8.698;2022-10-16T17:17:25;14.70;1.00
4813;DHT22;2420;51.202;8.698;2022-10-16T17:19:51;14.70;1.00
4813;DHT22;2420;51.202;8.698;2022-10-16T17:22:18;14.60;1.00
4813;DHT22;2420;51.202;8.698;2022-10-16T17:24:43;14.60;1.00
4813;DHT22;2420;51.202;8.698;2022-10-16T17:27:09;14.60;1.00
4813;DHT22;2420;51.202;8.698;2022-10-16T17:29:37;14.50;1.00
4813;DHT22;2420;51.202;8.698;2022-10-16T17:32:02;14.60;1.00
4813;DHT22;2420;51.202;8.698;2022-10-16T17:34:28;14.60;1.00
4813;DHT22;2420;51.202;8.698;2022-10-16T17:36:54;14.60;1.00
4813;DHT22;2420;51.202;8.698;2022-10-16T17:39:19;14.50;1.00
4813;DHT22;2420;51.202;8.698;2022-10-16T17:41:48;14.50;1.00
4813;DHT22;2420;51.202;8.698;2022-10-16T17:44:14;14.40;1.00
4813;DHT22;2420;51.202;8.698;2022-10-16T17:46:50;14.40;1.00
4813;DHT22;2420;51.202;8.698;2022-10-16T17:49:16;14.40;1.00
4813;DHT22;2420;51.202;8.698;2022-10-16T17:51:42;14.40;1.00
4813;DHT22;2420;51.202;8.698;2022-10-16T17:54:07;14.30;1.00
4813;DHT22;2420;51.202;8.698;2022-10-16T17:56:33;14.30;1.00
4813;DHT22;2420;51.202;8.698;2022-10-16T17:59:00;14.30;1.00
4813;DHT22;2420;51.202;8.698;2022-10-16T18:01:31;14.30;1.00
4813;DHT22;2420;51.202;8.698;2022-10-16T18:03:59;14.30;1.00
4813;DHT22;2420;51.202;8.698;2022-10-16T18:06:26;14.30;1.00
4813;DHT22;2420;51.202;8.698;2022-10-16T18:08:53;14.30;1.00
4813;DHT22;2420;51.202;8.698;2022-10-16T18:11:20;14.40;1.00
4813;DHT22;2420;51.202;8.698;2022-10-16T18:13:46;14.30;1.00
4813;DHT22;2420;51.202;8.698;2022-10-16T18:16:13;14.30;1.00
4813;DHT22;2420;51.202;8.698;2022-10-16T18:18:40;14.30;1.00
4813;DHT22;2420;51.202;8.698;2022-10-16T18:21:08;14.30;1.00
4813;DHT22;2420;51.202;8.698;2022-10-16T18:23:36;14.30;1.00